sensor_id;sensor_type;location;lat;lon;timestamp;pressure;altitude;pressure_sealevel;temperature;humidity
47785;BME280;35233;55.686;37.848;2023-09-12T00:01:05;100193.34;;;19.15;60.09
47785;BME280;35233;55.686;37.848;2023-09-12T00:03:32;100194.91;;;19.19;59.95
47785;BME280;35233;55.686;37.848;2023-09-12T00:05:59;100187.03;;;19.16;59.73
47785;BME280;35233;55.686;37.848;2023-09-12T00:08:26;100197.56;;;19.19;59.85
47785;BME280;35233;55.686;37.848;2023-09-12T00:11:04;100198.53;;;19.18;59.74
47785;BME280;35233;55.686;37.848;2023-09-12T00:13:30;100198.59;;;19.16;59.65
47785;BME280;35233;55.686;37.848;2023-09-12T00:15:56;100207.44;;;19.18;59.39
47785;BME280;35233;55.686;37.848;2023-09-12T00:18:22;100206.47;;;19.19;59.75
47785;BME280;35233;55.686;37.848;2023-09-12T00:20:48;100204.84;;;19.17;59.62
47785;BME280;35233;55.686;37.848;2023-09-12T00:23:13;100204.06;;;19.15;59.69
47785;BME280;35233;55.686;37.848;2023-09-12T00:25:38;100209.25;;;19.18;59.34
47785;BME280;35233;55.686;37.848;2023-09-12T00:28:04;100208.28;;;19.19;59.35
47785;BME280;35233;55.686;37.848;2023-09-12T00:30:30;100215.56;;;19.17;59.71
47785;BME280;35233;55.686;37.848;2023-09-12T00:32:55;100211.13;;;19.16;59.41
47785;BME280;35233;55.686;37.848;2023-09-12T00:35:21;100214.94;;;19.12;59.28
47785;BME280;35233;55.686;37.848;2023-09-12T00:37:46;100211.31;;;19.13;59.58
47785;BME280;35233;55.686;37.848;2023-09-12T00:40:12;100216.50;;;19.16;59.27
47785;BME280;35233;55.686;37.848;2023-09-12T00:42:37;100207.94;;;19.09;59.50
47785;BME280;35233;55.686;37.848;2023-09-12T00:45:03;100210.50;;;19.11;59.23
47785;BME280;35233;55.686;37.848;2023-09-12T00:47:29;100216.16;;;19.06;59.53
47785;BME280;35233;55.686;37.848;2023-09-12T00:49:56;100226.75;;;19.08;59.39
47785;BME280;35233;55.686;37.848;2023-09-12T00:52:24;100234.72;;;19.09;59.14
47785;BME280;35233;55.686;37.848;2023-09-12T00:54:51;100232.91;;;19.10;59.28
47785;BME280;35233;55.686;37.848;2023-09-12T00:57:17;100230.47;;;19.05;59.00
47785;BME280;35233;55.686;37.848;2023-09-12T00:59:43;100225.81;;;19.09;59.22
47785;BME280;35233;55.686;37.848;2023-09-12T01:02:08;100237.47;;;19.08;59.01
47785;BME280;35233;55.686;37.848;2023-09-12T01:04:35;100230.38;;;19.07;58.84
47785;BME280;35233;55.686;37.848;2023-09-12T01:07:04;100233.88;;;19.09;59.03
47785;BME280;35233;55.686;37.848;2023-09-12T01:09:31;100224.34;;;19.03;58.82
47785;BME280;35233;55.686;37.848;2023-09-12T01:11:57;100235.56;;;19.10;58.76
47785;BME280;35233;55.686;37.848;2023-09-12T01:14:22;100234.88;;;19.06;58.93
47785;BME280;35233;55.686;37.848;2023-09-12T01:16:48;100234.19;;;19.03;58.60
47785;BME280;35233;55.686;37.848;2023-09-12T01:19:14;100241.03;;;19.08;58.85
47785;BME280;35233;55.686;37.848;2023-09-12T01:27:26;100234.94;;;19.05;58.55
47785;BME280;35233;55.686;37.848;2023-09-12T01:30:02;100233.13;;;19.05;58.21
47785;BME280;35233;55.686;37.848;2023-09-12T01:32:29;100235.91;;;19.04;58.26
47785;BME280;35233;55.686;37.848;2023-09-12T01:34:56;100224.41;;;19.02;58.33
47785;BME280;35233;55.686;37.848;2023-09-12T01:37:21;100231.81;;;18.96;58.38
47785;BME280;35233;55.686;37.848;2023-09-12T01:39:47;100228.13;;;18.99;57.96
47785;BME280;35233;55.686;37.848;2023-09-12T01:42:15;100237.72;;;19.03;58.12
47785;BME280;35233;55.686;37.848;2023-09-12T01:44:43;100222.69;;;19.00;58.01
47785;BME280;35233;55.686;37.848;2023-09-12T01:47:11;100226.34;;;18.99;57.87
47785;BME280;35233;55.686;37.848;2023-09-12T01:49:40;100234.25;;;19.01;58.05
47785;BME280;35233;55.686;37.848;2023-09-12T01:52:07;100228.22;;;18.97;57.68
47785;BME280;35233;55.686;37.848;2023-09-12T01:54:33;100230.78;;;18.99;57.70
47785;BME280;35233;55.686;37.848;2023-09-12T01:57:00;100241.59;;;18.97;58.09
47785;BME280;35233;55.686;37.848;2023-09-12T01:59:27;100245.13;;;18.98;57.64
47785;BME280;35233;55.686;37.848;2023-09-12T02:01:53;100237.44;;;18.92;57.75
47785;BME280;35233;55.686;37.848;2023-09-12T02:04:18;100250.56;;;18.96;57.59
47785;BME280;35233;55.686;37.848;2023-09-12T02:06:44;100248.03;;;18.93;57.45
47785;BME280;35233;55.686;37.848;2023-09-12T02:09:10;100240.19;;;18.90;57.57
47785;BME280;35233;55.686;37.848;2023-09-12T02:11:35;100250.50;;;18.98;57.32
47785;BME280;35233;55.686;37.848;2023-09-12T02:14:01;100244.59;;;18.91;57.52
47785;BME280;35233;55.686;37.848;2023-09-12T02:16:26;100259.47;;;18.97;57.29
47785;BME280;35233;55.686;37.848;2023-09-12T02:18:51;100255.16;;;18.94;57.18
47785;BME280;35233;55.686;37.848;2023-09-12T02:21:17;100255.16;;;18.94;57.14
47785;BME280;35233;55.686;37.848;2023-09-12T02:23:43;100250.81;;;18.92;57.27
47785;BME280;35233;55.686;37.848;2023-09-12T02:26:09;100253.41;;;18.93;57.06
47785;BME280;35233;55.686;37.848;2023-09-12T02:28:34;100253.56;;;18.90;56.86
47785;BME280;35233;55.686;37.848;2023-09-12T02:31:00;100263.19;;;18.94;56.99
47785;BME280;35233;55.686;37.848;2023-09-12T02:33:25;100254.38;;;18.92;57.16
47785;BME280;35233;55.686;37.848;2023-09-12T02:35:51;100264.22;;;18.92;57.10
47785;BME280;35233;55.686;37.848;2023-09-12T02:38:17;100254.47;;;18.91;57.09
47785;BME280;35233;55.686;37.848;2023-09-12T02:40:43;100262.56;;;18.89;57.08
47785;BME280;35233;55.686;37.848;2023-09-12T02:43:09;100257.19;;;18.89;56.88
47785;BME280;35233;55.686;37.848;2023-09-12T02:45:34;100259.88;;;18.89;57.02
47785;BME280;35233;55.686;37.848;2023-09-12T02:48:00;100260.84;;;18.88;57.00
47785;BME280;35233;55.686;37.848;2023-09-12T02:50:26;100267.91;;;18.89;56.86
47785;BME280;35233;55.686;37.848;2023-09-12T02:52:51;100265.16;;;18.91;56.50
47785;BME280;35233;55.686;37.848;2023-09-12T02:55:17;100256.84;;;18.80;56.47
47785;BME280;35233;55.686;37.848;2023-09-12T02:57:42;100274.28;;;18.87;56.82
47785;BME280;35233;55.686;37.848;2023-09-12T03:00:08;100272.41;;;18.89;56.44
47785;BME280;35233;55.686;37.848;2023-09-12T03:02:34;100268.06;;;18.86;56.23
47785;BME280;35233;55.686;37.848;2023-09-12T03:05:00;100273.19;;;18.91;56.33
47785;BME280;35233;55.686;37.848;2023-09-12T03:07:27;100269.78;;;18.87;56.25
47785;BME280;35233;55.686;37.848;2023-09-12T03:09:52;100271.53;;;18.88;56.33
47785;BME280;35233;55.686;37.848;2023-09-12T03:12:18;100265.22;;;18.89;56.28
47785;BME280;35233;55.686;37.848;2023-09-12T03:14:43;100272.31;;;18.90;56.30
47785;BME280;35233;55.686;37.848;2023-09-12T03:17:09;100273.09;;;18.92;55.99
47785;BME280;35233;55.686;37.848;2023-09-12T03:19:34;100279.31;;;18.93;55.95
47785;BME280;35233;55.686;37.848;2023-09-12T03:22:00;100263.59;;;18.87;56.12
47785;BME280;35233;55.686;37.848;2023-09-12T03:24:25;100277.59;;;18.92;55.90
47785;BME280;35233;55.686;37.848;2023-09-12T03:26:51;100276.75;;;18.91;55.95
47785;BME280;35233;55.686;37.848;2023-09-12T03:29:17;100280.00;;;18.96;55.72
47785;BME280;35233;55.686;37.848;2023-09-12T03:31:42;100292.31;;;19.00;55.60
47785;BME280;35233;55.686;37.848;2023-09-12T03:34:08;100283.66;;;18.95;55.66
47785;BME280;35233;55.686;37.848;2023-09-12T03:36:33;100287.97;;;18.98;55.50
47785;BME280;35233;55.686;37.848;2023-09-12T03:38:59;100283.47;;;18.98;55.40
47785;BME280;35233;55.686;37.848;2023-09-12T03:41:25;100264.28;;;18.90;55.60
47785;BME280;35233;55.686;37.848;2023-09-12T03:43:54;100280.75;;;19.00;55.44
47785;BME280;35233;55.686;37.848;2023-09-12T03:46:21;100278.75;;;19.04;55.38
47785;BME280;35233;55.686;37.848;2023-09-12T03:48:46;100278.06;;;19.00;55.23
47785;BME280;35233;55.686;37.848;2023-09-12T03:51:12;100277.09;;;19.01;55.37
47785;BME280;35233;55.686;37.848;2023-09-12T03:53:38;100278.66;;;19.05;55.42
47785;BME280;35233;55.686;37.848;2023-09-12T03:56:04;100278.59;;;19.07;55.32
47785;BME280;35233;55.686;37.848;2023-09-12T03:58:30;100283.78;;;19.10;54.94
47785;BME280;35233;55.686;37.848;2023-09-12T04:00:55;100285.44;;;19.12;55.09
47785;BME280;35233;55.686;37.848;2023-09-12T04:03:21;100288.91;;;19.14;55.00
47785;BME280;35233;55.686;37.848;2023-09-12T04:05:47;100288.13;;;19.12;55.00
47785;BME280;35233;55.686;37.848;2023-09-12T04:08:13;100283.56;;;19.14;54.86
47785;BME280;35233;55.686;37.848;2023-09-12T04:10:38;100287.31;;;19.10;55.17
47785;BME280;35233;55.686;37.848;2023-09-12T04:13:04;100308.81;;;19.26;55.55
47785;BME280;35233;55.686;37.848;2023-09-12T04:15:29;100300.59;;;19.29;55.98
47785;BME280;35233;55.686;37.848;2023-09-12T04:17:55;100308.13;;;19.38;56.29
47785;BME280;35233;55.686;37.848;2023-09-12T04:20:20;100300.72;;;19.43;56.57
47785;BME280;35233;55.686;37.848;2023-09-12T04:22:46;100307.00;;;19.42;56.50
47785;BME280;35233;55.686;37.848;2023-09-12T04:25:12;100298.91;;;19.44;56.85
47785;BME280;35233;55.686;37.848;2023-09-12T04:27:38;100302.28;;;19.48;56.37
47785;BME280;35233;55.686;37.848;2023-09-12T04:30:04;100301.25;;;19.50;56.25
47785;BME280;35233;55.686;37.848;2023-09-12T04:32:29;100302.97;;;19.51;56.35
47785;BME280;35233;55.686;37.848;2023-09-12T04:34:55;100300.38;;;19.50;56.36
47785;BME280;35233;55.686;37.848;2023-09-12T04:37:20;100307.13;;;19.57;56.61
47785;BME280;35233;55.686;37.848;2023-09-12T04:39:46;100308.88;;;19.58;56.30
47785;BME280;35233;55.686;37.848;2023-09-12T04:42:11;100312.31;;;19.60;56.78
47785;BME280;35233;55.686;37.848;2023-09-12T04:44:39;100317.50;;;19.63;56.86
47785;BME280;35233;55.686;37.848;2023-09-12T04:47:05;100307.44;;;19.68;56.85
47785;BME280;35233;55.686;37.848;2023-09-12T04:49:31;100310.72;;;19.73;57.01
47785;BME280;35233;55.686;37.848;2023-09-12T04:51:56;100316.59;;;19.80;56.57
47785;BME280;35233;55.686;37.848;2023-09-12T04:54:22;100308.66;;;19.78;57.20
47785;BME280;35233;55.686;37.848;2023-09-12T04:56:47;100318.44;;;19.79;56.94
47785;BME280;35233;55.686;37.848;2023-09-12T04:59:13;100313.94;;;19.80;57.07
47785;BME280;35233;55.686;37.848;2023-09-12T05:01:38;100315.06;;;19.76;57.20
47785;BME280;35233;55.686;37.848;2023-09-12T05:04:04;100320.16;;;19.80;57.26
47785;BME280;35233;55.686;37.848;2023-09-12T05:06:29;100323.63;;;19.82;56.83
47785;BME280;35233;55.686;37.848;2023-09-12T05:08:55;100325.34;;;19.83;56.92
47785;BME280;35233;55.686;37.848;2023-09-12T05:11:22;100319.47;;;19.77;56.99
47785;BME280;35233;55.686;37.848;2023-09-12T05:13:49;100327.25;;;19.81;56.74
47785;BME280;35233;55.686;37.848;2023-09-12T05:16:14;100328.97;;;19.82;56.75
47785;BME280;35233;55.686;37.848;2023-09-12T05:18:40;100320.50;;;19.90;56.41
47785;BME280;35233;55.686;37.848;2023-09-12T05:21:06;100323.44;;;19.85;56.77
47785;BME280;35233;55.686;37.848;2023-09-12T05:23:31;100328.72;;;19.87;56.65
47785;BME280;35233;55.686;37.848;2023-09-12T05:25:57;100324.84;;;19.93;57.01
47785;BME280;35233;55.686;37.848;2023-09-12T05:28:25;100320.25;;;19.95;56.61
47785;BME280;35233;55.686;37.848;2023-09-12T05:30:50;100328.28;;;19.95;56.67
47785;BME280;35233;55.686;37.848;2023-09-12T05:33:16;100329.16;;;19.95;56.68
47785;BME280;35233;55.686;37.848;2023-09-12T05:35:41;100341.34;;;20.01;56.38
47785;BME280;35233;55.686;37.848;2023-09-12T05:38:07;100336.88;;;20.01;56.19
47785;BME280;35233;55.686;37.848;2023-09-12T05:40:32;100343.69;;;20.07;56.84
47785;BME280;35233;55.686;37.848;2023-09-12T05:42:58;100342.75;;;20.08;56.65
47785;BME280;35233;55.686;37.848;2023-09-12T05:45:23;100353.19;;;20.12;57.21
47785;BME280;35233;55.686;37.848;2023-09-12T05:47:49;100348.72;;;20.13;57.09
47785;BME280;35233;55.686;37.848;2023-09-12T05:50:16;100344.97;;;20.16;57.37
47785;BME280;35233;55.686;37.848;2023-09-12T05:52:42;100348.19;;;20.22;56.77
47785;BME280;35233;55.686;37.848;2023-09-12T05:55:10;100347.16;;;20.25;56.67
47785;BME280;35233;55.686;37.848;2023-09-12T05:57:36;100352.53;;;20.25;56.72
47785;BME280;35233;55.686;37.848;2023-09-12T06:00:01;100355.09;;;20.26;57.00
47785;BME280;35233;55.686;37.848;2023-09-12T06:02:35;100362.03;;;20.30;56.78
47785;BME280;35233;55.686;37.848;2023-09-12T06:05:01;100362.97;;;20.29;56.81
47785;BME280;35233;55.686;37.848;2023-09-12T06:07:26;100362.03;;;20.30;57.25
47785;BME280;35233;55.686;37.848;2023-09-12T06:09:52;100363.06;;;20.28;57.13
47785;BME280;35233;55.686;37.848;2023-09-12T06:12:17;100354.91;;;20.29;57.32
47785;BME280;35233;55.686;37.848;2023-09-12T06:14:43;100361.16;;;20.30;57.12
47785;BME280;35233;55.686;37.848;2023-09-12T06:17:09;100355.78;;;20.30;57.14
47785;BME280;35233;55.686;37.848;2023-09-12T06:19:34;100358.38;;;20.31;57.23
47785;BME280;35233;55.686;37.848;2023-09-12T06:22:00;100352.06;;;20.32;57.43
47785;BME280;35233;55.686;37.848;2023-09-12T06:24:25;100348.44;;;20.33;57.17
47785;BME280;35233;55.686;37.848;2023-09-12T06:26:51;100352.84;;;20.34;56.91
47785;BME280;35233;55.686;37.848;2023-09-12T06:29:17;100351.97;;;20.34;57.07
47785;BME280;35233;55.686;37.848;2023-09-12T06:31:42;100346.63;;;20.34;57.25
47785;BME280;35233;55.686;37.848;2023-09-12T06:34:08;100355.16;;;20.41;56.63
47785;BME280;35233;55.686;37.848;2023-09-12T06:36:34;100347.13;;;20.41;56.87
47785;BME280;35233;55.686;37.848;2023-09-12T06:39:00;100357.59;;;20.45;56.98
47785;BME280;35233;55.686;37.848;2023-09-12T06:41:26;100351.44;;;20.43;57.11
47785;BME280;35233;55.686;37.848;2023-09-12T06:44:04;100351.44;;;20.43;57.00
47785;BME280;35233;55.686;37.848;2023-09-12T06:46:30;100347.13;;;20.41;56.87
47785;BME280;35233;55.686;37.848;2023-09-12T06:48:56;100358.34;;;20.47;56.82
47785;BME280;35233;55.686;37.848;2023-09-12T06:51:25;100354.75;;;20.48;56.96
47785;BME280;35233;55.686;37.848;2023-09-12T06:53:53;100351.94;;;20.50;56.58
47785;BME280;35233;55.686;37.848;2023-09-12T06:56:18;100345.91;;;20.46;56.52
47785;BME280;35233;55.686;37.848;2023-09-12T06:58:44;100356.06;;;20.57;56.35
47785;BME280;35233;55.686;37.848;2023-09-12T07:01:09;100364.09;;;20.57;56.69
47785;BME280;35233;55.686;37.848;2023-09-12T07:03:36;100359.59;;;20.57;56.16
47785;BME280;35233;55.686;37.848;2023-09-12T07:06:02;100367.53;;;20.59;56.01
47785;BME280;35233;55.686;37.848;2023-09-12T07:08:29;100357.00;;;20.56;56.32
47785;BME280;35233;55.686;37.848;2023-09-12T07:10:55;100365.47;;;20.64;55.96
47785;BME280;35233;55.686;37.848;2023-09-12T07:13:23;100367.19;;;20.65;56.20
47785;BME280;35233;55.686;37.848;2023-09-12T07:15:50;100367.97;;;20.67;56.17
47785;BME280;35233;55.686;37.848;2023-09-12T07:18:15;100367.97;;;20.67;56.15
47785;BME280;35233;55.686;37.848;2023-09-12T07:20:41;100364.41;;;20.67;55.92
47785;BME280;35233;55.686;37.848;2023-09-12T07:23:06;100367.03;;;20.68;55.85
47785;BME280;35233;55.686;37.848;2023-09-12T07:25:39;100361.56;;;20.70;56.19
47785;BME280;35233;55.686;37.848;2023-09-12T07:28:08;100363.19;;;20.72;56.20
47785;BME280;35233;55.686;37.848;2023-09-12T07:30:34;100362.94;;;20.77;55.75
47785;BME280;35233;55.686;37.848;2023-09-12T07:33:00;100360.16;;;20.78;56.26
47785;BME280;35233;55.686;37.848;2023-09-12T07:35:25;100353.91;;;20.78;55.86
47785;BME280;35233;55.686;37.848;2023-09-12T07:37:51;100354.78;;;20.78;55.84
47785;BME280;35233;55.686;37.848;2023-09-12T07:40:17;100357.28;;;20.82;55.78
47785;BME280;35233;55.686;37.848;2023-09-12T07:42:42;100361.69;;;20.83;56.05
47785;BME280;35233;55.686;37.848;2023-09-12T07:45:08;100349.22;;;20.82;55.98
47785;BME280;35233;55.686;37.848;2023-09-12T07:47:34;100355.19;;;20.87;55.92
47785;BME280;35233;55.686;37.848;2023-09-12T07:50:00;100358.84;;;20.86;56.27
47785;BME280;35233;55.686;37.848;2023-09-12T07:52:29;100358.56;;;20.90;56.16
47785;BME280;35233;55.686;37.848;2023-09-12T07:55:07;100354.22;;;20.88;55.88
47785;BME280;35233;55.686;37.848;2023-09-12T07:57:33;100358.56;;;20.90;55.80
47785;BME280;35233;55.686;37.848;2023-09-12T07:59:59;100358.28;;;20.95;55.93
47785;BME280;35233;55.686;37.848;2023-09-12T08:02:25;100355.50;;;20.96;55.76
47785;BME280;35233;55.686;37.848;2023-09-12T08:04:50;100346.56;;;20.96;55.57
47785;BME280;35233;55.686;37.848;2023-09-12T08:07:16;100341.31;;;20.94;55.52
47785;BME280;35233;55.686;37.848;2023-09-12T08:09:51;100350.78;;;21.00;55.70
47785;BME280;35233;55.686;37.848;2023-09-12T08:12:17;100344.47;;;21.01;55.98
47785;BME280;35233;55.686;37.848;2023-09-12T08:14:43;100355.91;;;21.05;55.49
47785;BME280;35233;55.686;37.848;2023-09-12T08:17:10;100344.47;;;21.01;55.93
47785;BME280;35233;55.686;37.848;2023-09-12T08:19:36;100348.81;;;21.03;55.93
47785;BME280;35233;55.686;37.848;2023-09-12T08:22:02;100355.63;;;21.09;55.64
47785;BME280;35233;55.686;37.848;2023-09-12T08:24:27;100351.97;;;21.10;55.50
47785;BME280;35233;55.686;37.848;2023-09-12T08:26:53;100356.31;;;21.13;55.77
47785;BME280;35233;55.686;37.848;2023-09-12T08:29:20;100356.19;;;21.14;55.79
47785;BME280;35233;55.686;37.848;2023-09-12T08:31:46;100356.19;;;21.14;55.81
47785;BME280;35233;55.686;37.848;2023-09-12T08:34:12;100344.00;;;21.09;55.25
47785;BME280;35233;55.686;37.848;2023-09-12T08:36:39;100350.59;;;21.03;56.02
47785;BME280;35233;55.686;37.848;2023-09-12T08:39:04;100352.53;;;21.01;56.03
47785;BME280;35233;55.686;37.848;2023-09-12T08:41:33;100348.88;;;21.02;55.96
47785;BME280;35233;55.686;37.848;2023-09-12T08:44:00;100349.28;;;21.10;55.47
47785;BME280;35233;55.686;37.848;2023-09-12T08:46:26;100351.88;;;21.12;55.93
47785;BME280;35233;55.686;37.848;2023-09-12T08:48:55;100355.81;;;21.06;56.07
47785;BME280;35233;55.686;37.848;2023-09-12T08:51:25;100352.06;;;21.09;55.96
47785;BME280;35233;55.686;37.848;2023-09-12T08:53:51;100351.19;;;21.08;55.56
47785;BME280;35233;55.686;37.848;2023-09-12T08:56:18;100344.69;;;21.12;55.70
47785;BME280;35233;55.686;37.848;2023-09-12T08:58:44;100342.00;;;21.12;55.83
47785;BME280;35233;55.686;37.848;2023-09-12T09:01:13;100342.09;;;21.11;55.85
47785;BME280;35233;55.686;37.848;2023-09-12T09:03:42;100344.78;;;21.11;55.94
47785;BME280;35233;55.686;37.848;2023-09-12T09:06:09;100334.81;;;21.13;55.60
47785;BME280;35233;55.686;37.848;2023-09-12T09:08:36;100335.66;;;21.13;56.20
47785;BME280;35233;55.686;37.848;2023-09-12T09:11:04;100340.00;;;21.16;55.52
47785;BME280;35233;55.686;37.848;2023-09-12T09:13:33;100330.09;;;21.16;55.81
47785;BME280;35233;55.686;37.848;2023-09-12T09:16:12;100325.50;;;21.18;56.02
47785;BME280;35233;55.686;37.848;2023-09-12T09:21:28;100324.53;;;21.19;55.81
47785;BME280;35233;55.686;37.848;2023-09-12T09:23:59;100318.19;;;21.20;55.57
47785;BME280;35233;55.686;37.848;2023-09-12T09:26:25;100326.09;;;21.23;55.86
47785;BME280;35233;55.686;37.848;2023-09-12T09:29:05;100316.41;;;21.21;56.13
47785;BME280;35233;55.686;37.848;2023-09-12T09:31:31;100322.44;;;21.24;55.58
47785;BME280;35233;55.686;37.848;2023-09-12T09:33:58;100330.41;;;21.26;56.03
47785;BME280;35233;55.686;37.848;2023-09-12T09:36:24;100325.31;;;21.21;55.96
47785;BME280;35233;55.686;37.848;2023-09-12T09:38:50;100325.91;;;21.27;55.44
47785;BME280;35233;55.686;37.848;2023-09-12T09:41:20;100325.03;;;21.26;55.50
47785;BME280;35233;55.686;37.848;2023-09-12T09:43:50;100330.19;;;21.29;55.96
47785;BME280;35233;55.686;37.848;2023-09-12T09:46:19;100329.34;;;21.29;55.63
47785;BME280;35233;55.686;37.848;2023-09-12T09:48:51;100322.06;;;21.31;56.03
47785;BME280;35233;55.686;37.848;2023-09-12T09:51:17;100322.72;;;21.34;55.58
47785;BME280;35233;55.686;37.848;2023-09-12T09:53:43;100321.88;;;21.34;55.51
47785;BME280;35233;55.686;37.848;2023-09-12T09:56:10;100320.03;;;21.34;55.24
47785;BME280;35233;55.686;37.848;2023-09-12T09:58:45;100325.41;;;21.34;55.24
47785;BME280;35233;55.686;37.848;2023-09-12T10:01:15;100317.28;;;21.36;55.61
47785;BME280;35233;55.686;37.848;2023-09-12T10:03:44;100317.28;;;21.36;55.28
47785;BME280;35233;55.686;37.848;2023-09-12T10:06:11;100320.66;;;21.39;55.67
47785;BME280;35233;55.686;37.848;2023-09-12T10:08:38;100316.25;;;21.38;55.41
47785;BME280;35233;55.686;37.848;2023-09-12T10:11:06;100324.97;;;21.42;55.11
47785;BME280;35233;55.686;37.848;2023-09-12T10:13:35;100314.22;;;21.42;55.35
47785;BME280;35233;55.686;37.848;2023-09-12T10:16:02;100316.72;;;21.45;55.20
47785;BME280;35233;55.686;37.848;2023-09-12T10:18:34;100317.38;;;21.48;55.57
47785;BME280;35233;55.686;37.848;2023-09-12T10:21:06;100318.94;;;21.53;55.17
47785;BME280;35233;55.686;37.848;2023-09-12T10:23:38;100319.59;;;21.56;54.81
47785;BME280;35233;55.686;37.848;2023-09-12T10:26:12;100314.03;;;21.59;54.81
47785;BME280;35233;55.686;37.848;2023-09-12T10:28:41;100319.97;;;21.64;55.17
47785;BME280;35233;55.686;37.848;2023-09-12T10:31:07;100318.16;;;21.65;55.31
47785;BME280;35233;55.686;37.848;2023-09-12T10:33:35;100323.13;;;21.71;54.97
47785;BME280;35233;55.686;37.848;2023-09-12T10:36:05;100320.25;;;21.74;54.79
47785;BME280;35233;55.686;37.848;2023-09-12T10:38:38;100314.00;;;21.74;54.43
47785;BME280;35233;55.686;37.848;2023-09-12T10:41:06;100315.66;;;21.76;54.62
47785;BME280;35233;55.686;37.848;2023-09-12T10:43:35;100318.22;;;21.78;54.60
47785;BME280;35233;55.686;37.848;2023-09-12T10:46:01;100319.00;;;21.80;54.52
47785;BME280;35233;55.686;37.848;2023-09-12T10:48:30;100311.91;;;21.79;54.72
47785;BME280;35233;55.686;37.848;2023-09-12T10:51:00;100310.16;;;21.78;54.50
47785;BME280;35233;55.686;37.848;2023-09-12T10:53:26;100311.31;;;21.74;54.71
47785;BME280;35233;55.686;37.848;2023-09-12T11:01:33;100308.72;;;21.72;54.58
47785;BME280;35233;55.686;37.848;2023-09-12T11:04:00;100314.66;;;21.77;54.75
47785;BME280;35233;55.686;37.848;2023-09-12T11:06:47;100307.38;;;21.79;54.64
47785;BME280;35233;55.686;37.848;2023-09-12T11:11:43;100310.72;;;21.83;54.54
47785;BME280;35233;55.686;37.848;2023-09-12T11:14:09;100308.03;;;21.83;54.31
47785;BME280;35233;55.686;37.848;2023-09-12T11:16:35;100304.16;;;21.87;54.29
47785;BME280;35233;55.686;37.848;2023-09-12T11:19:20;100306.25;;;21.96;54.48
47785;BME280;35233;55.686;37.848;2023-09-12T11:21:52;100306.53;;;22.06;54.27
47785;BME280;35233;55.686;37.848;2023-09-12T11:24:19;100306.34;;;22.09;54.29
47785;BME280;35233;55.686;37.848;2023-09-12T11:27:02;100308.81;;;22.12;53.86
47785;BME280;35233;55.686;37.848;2023-09-12T11:29:37;100310.66;;;22.11;54.11
47785;BME280;35233;55.686;37.848;2023-09-12T11:32:04;100301.72;;;22.11;54.15
47785;BME280;35233;55.686;37.848;2023-09-12T11:34:40;100302.88;;;22.07;54.56
47785;BME280;35233;55.686;37.848;2023-09-12T11:37:07;100301.94;;;22.08;54.65
47785;BME280;35233;55.686;37.848;2023-09-12T11:39:34;100314.50;;;22.07;54.34
47785;BME280;35233;55.686;37.848;2023-09-12T11:42:02;100307.47;;;22.05;54.28
47785;BME280;35233;55.686;37.848;2023-09-12T11:44:28;100303.28;;;22.01;54.30
47785;BME280;35233;55.686;37.848;2023-09-12T11:46:56;100304.53;;;21.95;54.27
47785;BME280;35233;55.686;37.848;2023-09-12T11:49:35;100290.72;;;21.87;54.49
47785;BME280;35233;55.686;37.848;2023-09-12T11:52:02;100294.97;;;21.91;54.05
47785;BME280;35233;55.686;37.848;2023-09-12T11:54:29;100298.25;;;21.82;54.63
47785;BME280;35233;55.686;37.848;2023-09-12T11:56:56;100293.81;;;21.81;54.36
47785;BME280;35233;55.686;37.848;2023-09-12T11:59:27;100285.94;;;21.78;54.71
47785;BME280;35233;55.686;37.848;2023-09-12T12:01:53;100281.75;;;21.74;54.80
47785;BME280;35233;55.686;37.848;2023-09-12T12:04:23;100284.81;;;21.82;54.48
47785;BME280;35233;55.686;37.848;2023-09-12T12:06:51;100285.47;;;21.85;54.25
47785;BME280;35233;55.686;37.848;2023-09-12T12:09:18;100294.38;;;21.86;54.49
47785;BME280;35233;55.686;37.848;2023-09-12T12:11:47;100295.34;;;21.85;54.39
47785;BME280;35233;55.686;37.848;2023-09-12T12:14:15;100291.91;;;21.83;54.21
47785;BME280;35233;55.686;37.848;2023-09-12T12:16:42;100296.69;;;21.78;54.34
47785;BME280;35233;55.686;37.848;2023-09-12T12:19:09;100298.53;;;21.77;54.33
47785;BME280;35233;55.686;37.848;2023-09-12T12:21:35;100274.16;;;21.66;54.46
47785;BME280;35233;55.686;37.848;2023-09-12T12:24:01;100292.09;;;21.80;54.19
47785;BME280;35233;55.686;37.848;2023-09-12T12:26:29;100285.84;;;21.79;54.60
47785;BME280;35233;55.686;37.848;2023-09-12T12:28:55;100280.47;;;21.79;54.44
47785;BME280;35233;55.686;37.848;2023-09-12T12:31:22;100271.84;;;21.74;54.42
47785;BME280;35233;55.686;37.848;2023-09-12T12:33:52;100282.66;;;21.87;54.25
47785;BME280;35233;55.686;37.848;2023-09-12T12:36:18;100281.72;;;21.88;54.23
47785;BME280;35233;55.686;37.848;2023-09-12T12:38:46;100289.78;;;21.88;54.48
47785;BME280;35233;55.686;37.848;2023-09-12T12:41:16;100288.44;;;21.81;54.22
47785;BME280;35233;55.686;37.848;2023-09-12T12:43:42;100282.31;;;21.79;54.71
47785;BME280;35233;55.686;37.848;2023-09-12T12:46:12;100274.81;;;21.69;54.59
47785;BME280;35233;55.686;37.848;2023-09-12T12:48:39;100280.19;;;21.69;54.68
47785;BME280;35233;55.686;37.848;2023-09-12T12:51:22;100266.75;;;21.69;54.66
47785;BME280;35233;55.686;37.848;2023-09-12T12:53:53;100272.13;;;21.69;54.94
47785;BME280;35233;55.686;37.848;2023-09-12T12:56:26;100267.91;;;21.65;54.58